sensor_id;sensor_type;location;lat;lon;timestamp;temperature;humidity
78289;DHT22;67539;48.752;12.922;2024-01-15T00:43:36;-2.20;99.90
78289;DHT22;67539;48.752;12.922;2024-01-15T00:46:04;-2.30;99.90
78289;DHT22;67539;48.752;12.922;2024-01-15T00:48:32;-2.30;99.90
78289;DHT22;67539;48.752;12.922;2024-01-15T00:51:03;-2.40;99.90
78289;DHT22;67539;48.752;12.922;2024-01-15T00:53:32;-2.50;99.90
78289;DHT22;67539;48.752;12.922;2024-01-15T00:56:00;-2.50;99.90
78289;DHT22;67539;48.752;12.922;2024-01-15T00:58:30;-2.60;99.90
78289;DHT22;67539;48.752;12.922;2024-01-15T01:00:58;-2.60;99.90
78289;DHT22;67539;48.752;12.922;2024-01-15T01:03:27;-2.60;99.90
78289;DHT22;67539;48.752;12.922;2024-01-15T01:05:55;-2.70;99.90
78289;DHT22;67539;48.752;12.922;2024-01-15T01:08:25;-2.70;99.90
78289;DHT22;67539;48.752;12.922;2024-01-15T01:10:55;-2.70;99.90
78289;DHT22;67539;48.752;12.922;2024-01-15T01:13:24;-2.70;99.90
78289;DHT22;67539;48.752;12.922;2024-01-15T01:15:52;-2.70;99.90
78289;DHT22;67539;48.752;12.922;2024-01-15T01:18:21;-2.80;99.90
78289;DHT22;67539;48.752;12.922;2024-01-15T01:20:50;-2.80;99.90
78289;DHT22;67539;48.752;12.922;2024-01-15T01:23:18;-2.80;99.90
78289;DHT22;67539;48.752;12.922;2024-01-15T01:25:48;-2.80;99.90
78289;DHT22;67539;48.752;12.922;2024-01-15T01:30:45;-2.70;99.90
78289;DHT22;67539;48.752;12.922;2024-01-15T01:33:13;-2.70;99.90
78289;DHT22;67539;48.752;12.922;2024-01-15T01:35:42;-2.70;99.90
78289;DHT22;67539;48.752;12.922;2024-01-15T01:38:10;-2.70;99.90
78289;DHT22;67539;48.752;12.922;2024-01-15T01:43:10;-2.50;99.90
78289;DHT22;67539;48.752;12.922;2024-01-15T01:45:38;-2.40;99.90
78289;DHT22;67539;48.752;12.922;2024-01-15T01:48:07;-2.30;99.90
78289;DHT22;67539;48.752;12.922;2024-01-15T02:33:00;-1.80;99.90
78289;DHT22;67539;48.752;12.922;2024-01-15T02:35:29;-1.90;99.90
78289;DHT22;67539;48.752;12.922;2024-01-15T02:37:57;-1.90;99.90
78289;DHT22;67539;48.752;12.922;2024-01-15T02:40:27;-1.90;99.90
78289;DHT22;67539;48.752;12.922;2024-01-15T02:42:56;-2.00;99.90
78289;DHT22;67539;48.752;12.922;2024-01-15T02:45:24;-2.00;99.90
78289;DHT22;67539;48.752;12.922;2024-01-15T02:47:53;-2.00;99.90
78289;DHT22;67539;48.752;12.922;2024-01-15T02:50:22;-2.00;99.90
78289;DHT22;67539;48.752;12.922;2024-01-15T02:52:50;-2.00;99.90
78289;DHT22;67539;48.752;12.922;2024-01-15T02:55:19;-2.00;99.90
78289;DHT22;67539;48.752;12.922;2024-01-15T02:57:49;-2.00;99.90
78289;DHT22;67539;48.752;12.922;2024-01-15T03:00:18;-2.00;99.90
78289;DHT22;67539;48.752;12.922;2024-01-15T03:02:47;-2.00;99.90
78289;DHT22;67539;48.752;12.922;2024-01-15T03:05:16;-2.00;99.90
78289;DHT22;67539;48.752;12.922;2024-01-15T03:07:45;-2.00;99.90
78289;DHT22;67539;48.752;12.922;2024-01-15T03:10:13;-2.00;99.90
78289;DHT22;67539;48.752;12.922;2024-01-15T03:12:42;-2.00;99.90
78289;DHT22;67539;48.752;12.922;2024-01-15T03:15:12;-2.00;99.90
78289;DHT22;67539;48.752;12.922;2024-01-15T03:17:41;-2.00;99.90
78289;DHT22;67539;48.752;12.922;2024-01-15T03:20:11;-2.00;99.90
78289;DHT22;67539;48.752;12.922;2024-01-15T03:22:40;-2.00;99.90
78289;DHT22;67539;48.752;12.922;2024-01-15T03:25:08;-1.90;99.90
78289;DHT22;67539;48.752;12.922;2024-01-15T03:27:36;-1.90;99.90
78289;DHT22;67539;48.752;12.922;2024-01-15T03:30:06;-1.90;99.90
78289;DHT22;67539;48.752;12.922;2024-01-15T03:32:36;-1.90;99.90
78289;DHT22;67539;48.752;12.922;2024-01-15T03:35:05;-1.90;99.90
78289;DHT22;67539;48.752;12.922;2024-01-15T03:37:34;-1.90;99.90
78289;DHT22;67539;48.752;12.922;2024-01-15T03:40:03;-1.90;99.90
78289;DHT22;67539;48.752;12.922;2024-01-15T03:42:32;-1.90;99.90
78289;DHT22;67539;48.752;12.922;2024-01-15T03:45:00;-1.80;99.90
78289;DHT22;67539;48.752;12.922;2024-01-15T03:47:30;-1.80;99.90
78289;DHT22;67539;48.752;12.922;2024-01-15T03:50:00;-1.90;99.90
78289;DHT22;67539;48.752;12.922;2024-01-15T03:52:28;-1.90;99.90
78289;DHT22;67539;48.752;12.922;2024-01-15T03:54:56;-1.80;99.90
78289;DHT22;67539;48.752;12.922;2024-01-15T03:57:25;-1.80;99.90
78289;DHT22;67539;48.752;12.922;2024-01-15T03:59:54;-1.70;99.90
78289;DHT22;67539;48.752;12.922;2024-01-15T04:02:22;-1.80;99.90
78289;DHT22;67539;48.752;12.922;2024-01-15T04:04:50;-1.80;99.90
78289;DHT22;67539;48.752;12.922;2024-01-15T04:07:20;-1.70;99.90
78289;DHT22;67539;48.752;12.922;2024-01-15T04:09:49;-1.70;99.90
78289;DHT22;67539;48.752;12.922;2024-01-15T04:12:17;-1.70;99.90
78289;DHT22;67539;48.752;12.922;2024-01-15T04:14:46;-1.70;99.90
78289;DHT22;67539;48.752;12.922;2024-01-15T04:17:14;-1.80;99.90
78289;DHT22;67539;48.752;12.922;2024-01-15T04:19:43;-1.80;99.90
78289;DHT22;67539;48.752;12.922;2024-01-15T04:22:12;-1.80;99.90
78289;DHT22;67539;48.752;12.922;2024-01-15T04:24:42;-1.80;99.90
78289;DHT22;67539;48.752;12.922;2024-01-15T04:27:10;-1.80;99.90
78289;DHT22;67539;48.752;12.922;2024-01-15T04:29:39;-1.80;99.90
78289;DHT22;67539;48.752;12.922;2024-01-15T04:32:08;-1.80;99.90
78289;DHT22;67539;48.752;12.922;2024-01-15T04:34:36;-1.80;99.90
78289;DHT22;67539;48.752;12.922;2024-01-15T04:37:05;-1.80;99.90
78289;DHT22;67539;48.752;12.922;2024-01-15T04:39:33;-1.80;99.90
78289;DHT22;67539;48.752;12.922;2024-01-15T04:42:04;-1.80;99.90
78289;DHT22;67539;48.752;12.922;2024-01-15T04:44:32;-1.80;99.90
78289;DHT22;67539;48.752;12.922;2024-01-15T04:47:01;-1.80;99.90
78289;DHT22;67539;48.752;12.922;2024-01-15T04:49:29;-1.70;99.90
78289;DHT22;67539;48.752;12.922;2024-01-15T04:51:58;-1.80;99.90
78289;DHT22;67539;48.752;12.922;2024-01-15T04:54:26;-1.80;99.90
78289;DHT22;67539;48.752;12.922;2024-01-15T04:56:54;-1.80;99.90
78289;DHT22;67539;48.752;12.922;2024-01-15T04:59:24;-1.80;99.90
78289;DHT22;67539;48.752;12.922;2024-01-15T05:01:53;-1.80;99.90
78289;DHT22;67539;48.752;12.922;2024-01-15T05:04:22;-1.70;99.90
78289;DHT22;67539;48.752;12.922;2024-01-15T05:06:51;-1.70;99.90
78289;DHT22;67539;48.752;12.922;2024-01-15T05:09:20;-1.70;99.90
78289;DHT22;67539;48.752;12.922;2024-01-15T05:11:48;-1.70;99.90
78289;DHT22;67539;48.752;12.922;2024-01-15T05:14:16;-1.70;99.90
78289;DHT22;67539;48.752;12.922;2024-01-15T05:16:48;-1.70;99.90
78289;DHT22;67539;48.752;12.922;2024-01-15T05:19:18;-1.60;99.90
78289;DHT22;67539;48.752;12.922;2024-01-15T05:21:46;-1.60;99.90
78289;DHT22;67539;48.752;12.922;2024-01-15T05:24:15;-1.60;99.90
78289;DHT22;67539;48.752;12.922;2024-01-15T05:26:43;-1.60;99.90
78289;DHT22;67539;48.752;12.922;2024-01-15T05:29:12;-1.50;99.90
78289;DHT22;67539;48.752;12.922;2024-01-15T05:31:40;-1.50;99.90
78289;DHT22;67539;48.752;12.922;2024-01-15T05:34:10;-1.50;99.90
78289;DHT22;67539;48.752;12.922;2024-01-15T05:36:38;-1.50;99.90
78289;DHT22;67539;48.752;12.922;2024-01-15T05:39:06;-1.50;99.90
78289;DHT22;67539;48.752;12.922;2024-01-15T05:41:35;-1.50;99.90
78289;DHT22;67539;48.752;12.922;2024-01-15T05:44:03;-1.50;99.90
78289;DHT22;67539;48.752;12.922;2024-01-15T05:46:32;-1.50;99.90
78289;DHT22;67539;48.752;12.922;2024-01-15T05:49:00;-1.50;99.90
78289;DHT22;67539;48.752;12.922;2024-01-15T05:51:30;-1.50;99.90
78289;DHT22;67539;48.752;12.922;2024-01-15T05:53:58;-1.50;99.90
78289;DHT22;67539;48.752;12.922;2024-01-15T05:56:27;-1.50;99.90
78289;DHT22;67539;48.752;12.922;2024-01-15T05:58:55;-1.50;99.90
78289;DHT22;67539;48.752;12.922;2024-01-15T06:01:23;-1.50;99.90
78289;DHT22;67539;48.752;12.922;2024-01-15T06:03:52;-1.60;99.90
78289;DHT22;67539;48.752;12.922;2024-01-15T06:06:21;-1.60;99.90
78289;DHT22;67539;48.752;12.922;2024-01-15T06:08:51;-1.60;99.90
78289;DHT22;67539;48.752;12.922;2024-01-15T06:11:19;-1.60;99.90
78289;DHT22;67539;48.752;12.922;2024-01-15T06:13:47;-1.60;99.90
78289;DHT22;67539;48.752;12.922;2024-01-15T06:16:16;-1.70;99.90
78289;DHT22;67539;48.752;12.922;2024-01-15T06:18:46;-1.70;99.90
78289;DHT22;67539;48.752;12.922;2024-01-15T06:21:15;-1.60;99.90
78289;DHT22;67539;48.752;12.922;2024-01-15T06:23:43;-1.60;99.90
78289;DHT22;67539;48.752;12.922;2024-01-15T06:26:13;-1.60;99.90
78289;DHT22;67539;48.752;12.922;2024-01-15T06:28:41;-1.60;99.90
78289;DHT22;67539;48.752;12.922;2024-01-15T06:31:10;-1.60;99.90
78289;DHT22;67539;48.752;12.922;2024-01-15T06:33:38;-1.60;99.90
78289;DHT22;67539;48.752;12.922;2024-01-15T06:36:07;-1.60;99.90
78289;DHT22;67539;48.752;12.922;2024-01-15T06:38:36;-1.60;99.90
78289;DHT22;67539;48.752;12.922;2024-01-15T06:41:04;-1.60;99.90
78289;DHT22;67539;48.752;12.922;2024-01-15T06:43:34;-1.60;99.90
78289;DHT22;67539;48.752;12.922;2024-01-15T06:46:02;-1.50;99.90
78289;DHT22;67539;48.752;12.922;2024-01-15T06:48:34;-1.50;99.90
78289;DHT22;67539;48.752;12.922;2024-01-15T06:51:03;-1.50;99.90
78289;DHT22;67539;48.752;12.922;2024-01-15T06:53:32;-1.40;99.90
78289;DHT22;67539;48.752;12.922;2024-01-15T06:56:00;-1.40;99.90
78289;DHT22;67539;48.752;12.922;2024-01-15T06:58:31;-1.40;99.90
78289;DHT22;67539;48.752;12.922;2024-01-15T07:01:00;-1.40;99.90
78289;DHT22;67539;48.752;12.922;2024-01-15T07:03:29;-1.40;99.90
78289;DHT22;67539;48.752;12.922;2024-01-15T07:05:58;-1.40;99.90
78289;DHT22;67539;48.752;12.922;2024-01-15T07:08:26;-1.30;99.90
78289;DHT22;67539;48.752;12.922;2024-01-15T07:10:55;-1.30;99.90
78289;DHT22;67539;48.752;12.922;2024-01-15T07:13:23;-1.30;99.90
78289;DHT22;67539;48.752;12.922;2024-01-15T07:15:51;-1.30;99.90
78289;DHT22;67539;48.752;12.922;2024-01-15T14:19:36;1.60;99.90
78289;DHT22;67539;48.752;12.922;2024-01-15T14:22:04;1.60;99.90
78289;DHT22;67539;48.752;12.922;2024-01-15T14:24:33;1.60;99.90
78289;DHT22;67539;48.752;12.922;2024-01-15T14:27:01;1.60;99.90
78289;DHT22;67539;48.752;12.922;2024-01-15T14:29:32;1.50;99.90
78289;DHT22;67539;48.752;12.922;2024-01-15T14:32:00;1.50;99.90
78289;DHT22;67539;48.752;12.922;2024-01-15T14:34:28;1.50;99.90
78289;DHT22;67539;48.752;12.922;2024-01-15T14:36:58;1.50;99.90
78289;DHT22;67539;48.752;12.922;2024-01-15T14:39:26;1.50;99.90
78289;DHT22;67539;48.752;12.922;2024-01-15T14:41:54;1.50;99.90
78289;DHT22;67539;48.752;12.922;2024-01-15T14:44:23;1.50;99.90
78289;DHT22;67539;48.752;12.922;2024-01-15T14:46:52;1.50;99.90
78289;DHT22;67539;48.752;12.922;2024-01-15T14:49:20;1.50;99.90
78289;DHT22;67539;48.752;12.922;2024-01-15T14:51:48;1.30;99.90
78289;DHT22;67539;48.752;12.922;2024-01-15T14:54:18;1.10;99.90
78289;DHT22;67539;48.752;12.922;2024-01-15T14:56:50;0.90;99.90
78289;DHT22;67539;48.752;12.922;2024-01-15T14:59:18;0.70;99.90
78289;DHT22;67539;48.752;12.922;2024-01-15T15:01:46;0.40;99.90
78289;DHT22;67539;48.752;12.922;2024-01-15T15:04:15;0.20;99.90
78289;DHT22;67539;48.752;12.922;2024-01-15T15:06:43;0.10;99.90
78289;DHT22;67539;48.752;12.922;2024-01-15T15:09:12;0.00;99.90
78289;DHT22;67539;48.752;12.922;2024-01-15T15:11:41;0.00;99.90
78289;DHT22;67539;48.752;12.922;2024-01-15T15:14:10;-0.10;99.90
78289;DHT22;67539;48.752;12.922;2024-01-15T15:16:38;-0.10;99.90
78289;DHT22;67539;48.752;12.922;2024-01-15T15:19:06;-0.10;99.90
78289;DHT22;67539;48.752;12.922;2024-01-15T15:21:34;-0.10;99.90
78289;DHT22;67539;48.752;12.922;2024-01-15T15:24:03;-0.10;99.90
78289;DHT22;67539;48.752;12.922;2024-01-15T15:26:31;-0.10;99.90
78289;DHT22;67539;48.752;12.922;2024-01-15T15:29:01;-0.20;99.90
78289;DHT22;67539;48.752;12.922;2024-01-15T15:31:29;-0.20;99.90
78289;DHT22;67539;48.752;12.922;2024-01-15T15:33:57;-0.20;99.90
78289;DHT22;67539;48.752;12.922;2024-01-15T15:36:26;-0.20;99.90
78289;DHT22;67539;48.752;12.922;2024-01-15T15:38:54;-0.20;99.90
78289;DHT22;67539;48.752;12.922;2024-01-15T15:41:24;-0.20;99.90
78289;DHT22;67539;48.752;12.922;2024-01-15T15:43:55;-0.20;99.90
78289;DHT22;67539;48.752;12.922;2024-01-15T15:46:24;-0.20;99.90
78289;DHT22;67539;48.752;12.922;2024-01-15T15:48:52;-0.20;99.90
78289;DHT22;67539;48.752;12.922;2024-01-15T15:51:21;-0.20;99.90
78289;DHT22;67539;48.752;12.922;2024-01-15T15:53:49;-0.20;99.90
78289;DHT22;67539;48.752;12.922;2024-01-15T15:56:18;-0.10;99.90
78289;DHT22;67539;48.752;12.922;2024-01-15T15:58:46;-0.20;99.90
78289;DHT22;67539;48.752;12.922;2024-01-15T16:01:15;-0.10;99.90
78289;DHT22;67539;48.752;12.922;2024-01-15T16:03:45;-0.20;99.90
78289;DHT22;67539;48.752;12.922;2024-01-15T16:06:13;-0.20;99.90
78289;DHT22;67539;48.752;12.922;2024-01-15T16:08:42;-0.20;99.90
78289;DHT22;67539;48.752;12.922;2024-01-15T16:11:11;-0.20;99.90
78289;DHT22;67539;48.752;12.922;2024-01-15T16:13:39;-0.20;99.90
78289;DHT22;67539;48.752;12.922;2024-01-15T16:16:07;-0.20;99.90
78289;DHT22;67539;48.752;12.922;2024-01-15T16:18:57;-0.20;99.90
78289;DHT22;67539;48.752;12.922;2024-01-15T16:21:45;-0.20;99.90
78289;DHT22;67539;48.752;12.922;2024-01-15T16:24:33;-0.20;99.90
78289;DHT22;67539;48.752;12.922;2024-01-15T16:27:17;-0.20;99.90
78289;DHT22;67539;48.752;12.922;2024-01-15T16:29:45;-0.20;99.90
78289;DHT22;67539;48.752;12.922;2024-01-15T16:32:13;-0.20;99.90
78289;DHT22;67539;48.752;12.922;2024-01-15T16:34:43;-0.20;99.90
78289;DHT22;67539;48.752;12.922;2024-01-15T16:37:11;-0.20;99.90
78289;DHT22;67539;48.752;12.922;2024-01-15T16:39:39;-0.20;99.90
78289;DHT22;67539;48.752;12.922;2024-01-15T16:42:08;-0.20;99.90
78289;DHT22;67539;48.752;12.922;2024-01-15T16:44:36;-0.10;99.90
78289;DHT22;67539;48.752;12.922;2024-01-15T16:47:04;-0.10;99.90
78289;DHT22;67539;48.752;12.922;2024-01-15T16:49:34;-0.10;99.90
78289;DHT22;67539;48.752;12.922;2024-01-15T16:52:04;-0.10;99.90
78289;DHT22;67539;48.752;12.922;2024-01-15T16:54:34;-0.10;99.90
78289;DHT22;67539;48.752;12.922;2024-01-15T16:57:03;-0.10;99.90
78289;DHT22;67539;48.752;12.922;2024-01-15T16:59:31;-0.10;99.90
78289;DHT22;67539;48.752;12.922;2024-01-15T17:01:59;-0.10;99.90
78289;DHT22;67539;48.752;12.922;2024-01-15T17:04:27;-0.10;99.90
78289;DHT22;67539;48.752;12.922;2024-01-15T17:06:55;-0.10;99.90
78289;DHT22;67539;48.752;12.922;2024-01-15T17:09:26;-0.10;99.90
78289;DHT22;67539;48.752;12.922;2024-01-15T17:11:54;-0.10;99.90
78289;DHT22;67539;48.752;12.922;2024-01-15T17:14:22;-0.10;99.90
78289;DHT22;67539;48.752;12.922;2024-01-15T17:16:51;-0.10;99.90
78289;DHT22;67539;48.752;12.922;2024-01-15T17:19:19;0.00;99.90
78289;DHT22;67539;48.752;12.922;2024-01-15T17:21:47;0.00;99.90
78289;DHT22;67539;48.752;12.922;2024-01-15T17:24:15;0.00;99.90
78289;DHT22;67539;48.752;12.922;2024-01-15T17:26:45;0.10;99.90
78289;DHT22;67539;48.752;12.922;2024-01-15T17:29:13;0.10;99.90
78289;DHT22;67539;48.752;12.922;2024-01-15T17:31:41;0.10;99.90
78289;DHT22;67539;48.752;12.922;2024-01-15T17:34:09;0.10;99.90
78289;DHT22;67539;48.752;12.922;2024-01-15T17:36:38;0.10;99.90
78289;DHT22;67539;48.752;12.922;2024-01-15T17:39:06;0.10;99.90
78289;DHT22;67539;48.752;12.922;2024-01-15T17:41:36;0.10;99.90
78289;DHT22;67539;48.752;12.922;2024-01-15T17:44:06;0.10;99.90
78289;DHT22;67539;48.752;12.922;2024-01-15T17:46:34;0.10;99.90
78289;DHT22;67539;48.752;12.922;2024-01-15T17:49:02;0.20;99.90
78289;DHT22;67539;48.752;12.922;2024-01-15T17:51:31;0.20;99.90
78289;DHT22;67539;48.752;12.922;2024-01-15T17:53:59;0.20;99.90
78289;DHT22;67539;48.752;12.922;2024-01-15T17:56:27;0.20;99.90
78289;DHT22;67539;48.752;12.922;2024-01-15T17:58:56;0.20;99.90
78289;DHT22;67539;48.752;12.922;2024-01-15T18:01:26;0.20;99.90
78289;DHT22;67539;48.752;12.922;2024-01-15T18:03:54;0.20;99.90
78289;DHT22;67539;48.752;12.922;2024-01-15T18:06:25;0.20;99.90
78289;DHT22;67539;48.752;12.922;2024-01-15T18:08:53;0.30;99.90
78289;DHT22;67539;48.752;12.922;2024-01-15T18:11:21;0.30;99.90
78289;DHT22;67539;48.752;12.922;2024-01-15T18:13:50;0.30;99.90
78289;DHT22;67539;48.752;12.922;2024-01-15T18:16:18;0.30;99.90
78289;DHT22;67539;48.752;12.922;2024-01-15T18:18:51;0.30;99.90
78289;DHT22;67539;48.752;12.922;2024-01-15T18:21:20;0.20;99.90
78289;DHT22;67539;48.752;12.922;2024-01-15T18:23:49;0.10;99.90
78289;DHT22;67539;48.752;12.922;2024-01-15T18:26:17;0.10;99.90
78289;DHT22;67539;48.752;12.922;2024-01-15T18:28:46;0.00;99.90
78289;DHT22;67539;48.752;12.922;2024-01-15T18:31:14;0.00;99.90
78289;DHT22;67539;48.752;12.922;2024-01-15T18:33:42;-0.10;99.90
78289;DHT22;67539;48.752;12.922;2024-01-15T18:36:12;-0.10;99.90
78289;DHT22;67539;48.752;12.922;2024-01-15T18:38:40;-0.20;99.90
78289;DHT22;67539;48.752;12.922;2024-01-15T18:41:08;-0.20;99.90
78289;DHT22;67539;48.752;12.922;2024-01-15T18:43:36;-0.10;99.90
78289;DHT22;67539;48.752;12.922;2024-01-15T18:46:05;-0.10;99.90
78289;DHT22;67539;48.752;12.922;2024-01-15T18:48:34;-0.10;99.90
78289;DHT22;67539;48.752;12.922;2024-01-15T18:51:03;-0.10;99.90
78289;DHT22;67539;48.752;12.922;2024-01-15T18:53:33;-0.10;99.90
78289;DHT22;67539;48.752;12.922;2024-01-15T18:56:01;-0.10;99.90
78289;DHT22;67539;48.752;12.922;2024-01-15T18:58:29;-0.10;99.90
78289;DHT22;67539;48.752;12.922;2024-01-15T19:00:58;-0.20;99.90
78289;DHT22;67539;48.752;12.922;2024-01-15T19:03:26;-0.20;99.90
78289;DHT22;67539;48.752;12.922;2024-01-15T19:05:54;-0.20;99.90
78289;DHT22;67539;48.752;12.922;2024-01-15T19:08:23;-0.20;99.90
78289;DHT22;67539;48.752;12.922;2024-01-15T19:10:52;-0.30;99.90
78289;DHT22;67539;48.752;12.922;2024-01-15T19:13:21;-0.30;99.90
78289;DHT22;67539;48.752;12.922;2024-01-15T19:15:50;-0.40;99.90
78289;DHT22;67539;48.752;12.922;2024-01-15T19:18:18;-0.40;99.90
78289;DHT22;67539;48.752;12.922;2024-01-15T19:20:46;-0.50;99.90
78289;DHT22;67539;48.752;12.922;2024-01-15T19:23:15;-0.50;99.90
78289;DHT22;67539;48.752;12.922;2024-01-15T19:25:43;-0.50;99.90
78289;DHT22;67539;48.752;12.922;2024-01-15T19:28:15;-0.60;99.90
78289;DHT22;67539;48.752;12.922;2024-01-15T19:30:43;-0.60;99.90
78289;DHT22;67539;48.752;12.922;2024-01-15T19:33:11;-0.70;99.90
78289;DHT22;67539;48.752;12.922;2024-01-15T19:35:40;-0.70;99.90
78289;DHT22;67539;48.752;12.922;2024-01-15T19:38:08;-0.80;99.90
78289;DHT22;67539;48.752;12.922;2024-01-15T19:40:37;-0.80;99.90
78289;DHT22;67539;48.752;12.922;2024-01-15T19:43:05;-0.80;99.90
78289;DHT22;67539;48.752;12.922;2024-01-15T19:45:35;-0.80;99.90
78289;DHT22;67539;48.752;12.922;2024-01-15T19:48:03;-0.90;99.90
78289;DHT22;67539;48.752;12.922;2024-01-15T19:50:32;-0.90;99.90
78289;DHT22;67539;48.752;12.922;2024-01-15T19:53:00;-0.90;99.90
78289;DHT22;67539;48.752;12.922;2024-01-15T19:55:28;-0.90;99.90
78289;DHT22;67539;48.752;12.922;2024-01-15T19:57:56;-0.90;99.90
78289;DHT22;67539;48.752;12.922;2024-01-15T20:00:24;-0.90;99.90
78289;DHT22;67539;48.752;12.922;2024-01-15T20:02:54;-0.90;99.90
78289;DHT22;67539;48.752;12.922;2024-01-15T20:05:22;-0.90;99.90
78289;DHT22;67539;48.752;12.922;2024-01-15T20:07:50;-1.00;99.90
78289;DHT22;67539;48.752;12.922;2024-01-15T20:10:18;-1.00;99.90
78289;DHT22;67539;48.752;12.922;2024-01-15T20:12:47;-0.90;99.90
78289;DHT22;67539;48.752;12.922;2024-01-15T20:15:15;-0.90;99.90
78289;DHT22;67539;48.752;12.922;2024-01-15T20:17:45;-0.90;99.90
78289;DHT22;67539;48.752;12.922;2024-01-15T20:20:15;-0.80;99.90
78289;DHT22;67539;48.752;12.922;2024-01-15T20:22:43;-0.80;99.90
78289;DHT22;67539;48.752;12.922;2024-01-15T20:25:11;-0.80;99.90
78289;DHT22;67539;48.752;12.922;2024-01-15T20:27:39;-0.80;99.90
78289;DHT22;67539;48.752;12.922;2024-01-15T20:30:08;-0.80;99.90
78289;DHT22;67539;48.752;12.922;2024-01-15T20:32:36;-0.80;99.90
78289;DHT22;67539;48.752;12.922;2024-01-15T20:35:06;-0.80;99.90
78289;DHT22;67539;48.752;12.922;2024-01-15T20:37:35;-0.80;99.90
78289;DHT22;67539;48.752;12.922;2024-01-15T20:40:04;-0.70;99.90
78289;DHT22;67539;48.752;12.922;2024-01-15T20:42:33;-0.70;99.90
78289;DHT22;67539;48.752;12.922;2024-01-15T20:45:01;-0.70;99.90
78289;DHT22;67539;48.752;12.922;2024-01-15T20:47:29;-0.70;99.90
78289;DHT22;67539;48.752;12.922;2024-01-15T20:49:58;-0.70;99.90
78289;DHT22;67539;48.752;12.922;2024-01-15T20:52:27;-0.70;99.90
78289;DHT22;67539;48.752;12.922;2024-01-15T20:54:56;-0.70;99.90
78289;DHT22;67539;48.752;12.922;2024-01-15T20:57:24;-0.80;99.90
78289;DHT22;67539;48.752;12.922;2024-01-15T20:59:53;-0.80;99.90
78289;DHT22;67539;48.752;12.922;2024-01-15T21:02:21;-0.80;99.90
78289;DHT22;67539;48.752;12.922;2024-01-15T21:04:49;-0.90;99.90
78289;DHT22;67539;48.752;12.922;2024-01-15T21:07:18;-0.80;99.90
78289;DHT22;67539;48.752;12.922;2024-01-15T21:09:46;-0.70;99.90
78289;DHT22;67539;48.752;12.922;2024-01-15T21:12:15;-0.70;99.90
78289;DHT22;67539;48.752;12.922;2024-01-15T21:14:44;-0.70;99.90
78289;DHT22;67539;48.752;12.922;2024-01-15T21:17:12;-0.70;99.90
78289;DHT22;67539;48.752;12.922;2024-01-15T21:19:41;-0.70;99.90
78289;DHT22;67539;48.752;12.922;2024-01-15T21:22:10;-0.70;99.90
78289;DHT22;67539;48.752;12.922;2024-01-15T21:24:38;-0.60;99.90
78289;DHT22;67539;48.752;12.922;2024-01-15T21:27:06;-0.60;99.90
78289;DHT22;67539;48.752;12.922;2024-01-15T21:29:36;-0.50;99.90
78289;DHT22;67539;48.752;12.922;2024-01-15T21:32:05;-0.50;99.90
78289;DHT22;67539;48.752;12.922;2024-01-15T21:34:33;-0.50;99.90
78289;DHT22;67539;48.752;12.922;2024-01-15T21:37:01;-0.50;99.90
78289;DHT22;67539;48.752;12.922;2024-01-15T21:39:32;-0.40;99.90
78289;DHT22;67539;48.752;12.922;2024-01-15T21:42:00;-0.40;99.90
78289;DHT22;67539;48.752;12.922;2024-01-15T21:44:29;-0.40;99.90
78289;DHT22;67539;48.752;12.922;2024-01-15T21:46:58;-0.40;99.90
78289;DHT22;67539;48.752;12.922;2024-01-15T21:49:27;-0.40;99.90
78289;DHT22;67539;48.752;12.922;2024-01-15T21:51:55;-0.40;99.90
78289;DHT22;67539;48.752;12.922;2024-01-15T21:54:23;-0.40;99.90
78289;DHT22;67539;48.752;12.922;2024-01-15T21:56:51;-0.30;99.90
78289;DHT22;67539;48.752;12.922;2024-01-15T21:59:20;-0.40;99.90
78289;DHT22;67539;48.752;12.922;2024-01-15T22:01:48;-0.30;99.90
78289;DHT22;67539;48.752;12.922;2024-01-15T22:04:23;-0.30;99.90
78289;DHT22;67539;48.752;12.922;2024-01-15T22:06:51;-0.30;99.90
78289;DHT22;67539;48.752;12.922;2024-01-15T22:09:20;-0.30;99.90
78289;DHT22;67539;48.752;12.922;2024-01-15T22:11:48;-0.30;99.90
78289;DHT22;67539;48.752;12.922;2024-01-15T22:14:17;-0.40;99.90
78289;DHT22;67539;48.752;12.922;2024-01-15T22:16:45;-0.40;99.90
78289;DHT22;67539;48.752;12.922;2024-01-15T22:19:14;-0.40;99.90
78289;DHT22;67539;48.752;12.922;2024-01-15T22:21:44;-0.40;99.90
78289;DHT22;67539;48.752;12.922;2024-01-15T22:24:13;-0.40;99.90
78289;DHT22;67539;48.752;12.922;2024-01-15T22:26:42;-0.40;99.90
78289;DHT22;67539;48.752;12.922;2024-01-15T22:29:10;-0.40;99.90
78289;DHT22;67539;48.752;12.922;2024-01-15T22:31:38;-0.40;99.90
78289;DHT22;67539;48.752;12.922;2024-01-15T22:34:08;-0.50;99.90
78289;DHT22;67539;48.752;12.922;2024-01-15T22:36:37;-0.40;99.90
78289;DHT22;67539;48.752;12.922;2024-01-15T22:39:07;-0.40;99.90
78289;DHT22;67539;48.752;12.922;2024-01-15T22:41:35;-0.40;99.90
78289;DHT22;67539;48.752;12.922;2024-01-15T22:44:03;-0.40;99.90
78289;DHT22;67539;48.752;12.922;2024-01-15T22:46:32;-0.40;99.90
78289;DHT22;67539;48.752;12.922;2024-01-15T22:49:00;-0.50;99.90
78289;DHT22;67539;48.752;12.922;2024-01-15T22:51:29;-0.40;99.90
78289;DHT22;67539;48.752;12.922;2024-01-15T22:53:57;-0.40;99.90
78289;DHT22;67539;48.752;12.922;2024-01-15T22:56:27;-0.30;99.90
78289;DHT22;67539;48.752;12.922;2024-01-15T22:58:55;-0.70;99.90
78289;DHT22;67539;48.752;12.922;2024-01-15T23:01:23;-0.40;99.90
78289;DHT22;67539;48.752;12.922;2024-01-15T23:03:52;-0.40;99.90
78289;DHT22;67539;48.752;12.922;2024-01-15T23:06:20;-0.50;99.90
78289;DHT22;67539;48.752;12.922;2024-01-15T23:08:49;-0.50;99.90
78289;DHT22;67539;48.752;12.922;2024-01-15T23:11:17;-0.50;99.90
78289;DHT22;67539;48.752;12.922;2024-01-15T23:13:47;-0.50;99.90
78289;DHT22;67539;48.752;12.922;2024-01-15T23:16:15;-0.50;99.90
78289;DHT22;67539;48.752;12.922;2024-01-15T23:18:43;-0.50;99.90
78289;DHT22;67539;48.752;12.922;2024-01-15T23:21:12;-0.50;99.90
78289;DHT22;67539;48.752;12.922;2024-01-15T23:23:41;-0.50;99.90
78289;DHT22;67539;48.752;12.922;2024-01-15T23:26:09;-0.50;99.90
78289;DHT22;67539;48.752;12.922;2024-01-15T23:28:40;-0.50;99.90
78289;DHT22;67539;48.752;12.922;2024-01-15T23:31:10;-0.40;99.90
78289;DHT22;67539;48.752;12.922;2024-01-15T23:33:38;-0.50;99.90
78289;DHT22;67539;48.752;12.922;2024-01-15T23:36:07;-0.50;99.90
78289;DHT22;67539;48.752;12.922;2024-01-15T23:38:36;-0.50;99.90
78289;DHT22;67539;48.752;12.922;2024-01-15T23:41:06;-0.40;99.90
78289;DHT22;67539;48.752;12.922;2024-01-15T23:43:37;-0.40;99.90
78289;DHT22;67539;48.752;12.922;2024-01-15T23:46:06;-0.40;99.90
78289;DHT22;67539;48.752;12.922;2024-01-15T23:48:42;-0.40;99.90
78289;DHT22;67539;48.752;12.922;2024-01-15T23:51:11;-0.40;99.90
78289;DHT22;67539;48.752;12.922;2024-01-15T23:53:39;-0.40;99.90
78289;DHT22;67539;48.752;12.922;2024-01-15T23:56:08;-0.40;99.90
78289;DHT22;67539;48.752;12.922;2024-01-15T23:58:36;-0.30;99.90
